Ambler, Alaska
Current Conditions -  °F | °C
As of 12:56 PM on Saturday 25 Oct 2014 (Local Time) from PAFM Reporting Station
Overcast Overcast  
Wind Chill: 17°   Ceiling: 1300
Heat Index: 27°   Visibility: 1mi
Dew Point: 21°   Wind: 9mph
Humidity: 80%   Direction: 110°ESE
Pressure: 29.76"   Gusts: 17mph
Location:  67.09°N, 157.85°W
Report Text: PAFM 252056Z AUTO 11008G15KT 1SM OVC013 M03/M06 A2976 RMK AO1 57010
Loading
Personal Weather Stations






























Interactive Weather Map
Tropical Storm Tracking
New forecast layout! Learn more

10-Day Weather Forecast

Advertisements
Track Severe Weather on mobile